Latest Weather Observations for Spring Bay

IDT60801

Issued at 5:05 pm EST Tuesday 22 July 2014 (issued every 30 minutes, with the page automatically refreshed every 10 minutes)

About weather observations | Map of weather stations | Latest weather observations for TAS | Other Formats
Station Details ID: 092133 Name: SPRING BAY NTC AWS Lat: -42.55 Lon: 147.93 Height: 0.0 m
Data from the previous 72 hours. | See also: Recent months for locations in Tasmania
Date/Time
EST
Temp
°C
App
Temp
°C
Dew
Point
Rel
Hum
%
Delta-T
°C
Wind Press
QNH
hPa
Press
MSL
hPa
Rain
since 9 am
mm
Dir
 
Spd
km/h
Gust
km/h
Spd
kts
Gust
kts
22/05:00pm 10.1 - - - - N 7 13 4 7 1023.8 1023.8 -
22/04:30pm 11.4 - - - - N 4 7 2 4 1023.7 - -
22/04:00pm 12.1 - - - - E 11 13 6 7 1023.6 1023.6 -
22/03:30pm 13.2 - - - - ESE 4 6 2 3 1023.5 - -
22/03:00pm 12.8 - - - - E 7 9 4 5 1023.5 1023.5 -
22/02:30pm 12.5 - - - - E 7 11 4 6 1023.3 - -
22/02:00pm 12.7 - - - - ESE 9 13 5 7 1023.4 1023.4 -
22/01:30pm 13.2 - - - - SW 13 17 7 9 1023.6 - -
22/01:00pm 12.8 - - - - WSW 13 15 7 8 1024.0 1024.0 -
22/12:30pm 11.8 - - - - SW 11 15 6 8 1024.3 - -
22/12:00pm 10.3 - - - - SW 15 20 8 11 1024.8 1024.8 -
22/11:30am 9.4 - - - - WSW 15 20 8 11 1025.3 - -
22/11:00am 9.7 - - - - SW 9 13 5 7 1025.6 1025.6 -
22/10:30am 8.7 - - - - WSW 11 17 6 9 1025.7 - -
22/10:00am 9.0 - - - - WSW 7 9 4 5 1025.8 1025.8 -
22/09:30am 6.9 - - - - WSW 11 17 6 9 1026.1 - -
22/09:00am 6.4 - - - - WSW 15 20 8 11 1026.3 1026.3 -
22/08:30am 4.7 - - - - WSW 11 20 6 11 1026.2 - -
22/08:00am 3.3 - - - - W 9 17 5 9 1025.8 1025.8 -
22/07:30am 3.7 - - - - WNW 7 11 4 6 1025.4 - -
22/07:00am 3.8 - - - - W 7 13 4 7 1025.2 1025.2 -
22/06:30am 3.1 - - - - WNW 7 13 4 7 1025.0 - -
22/06:00am 3.7 - - - - W 9 15 5 8 1025.1 1025.1 -
22/05:30am 3.8 - - - - WNW 6 9 3 5 1024.9 - -
22/05:00am 4.1 - - - - W 9 15 5 8 1025.0 1025.0 -
22/04:30am 4.8 - - - - W 11 17 6 9 1024.9 - -
22/04:00am 5.0 - - - - WSW 13 20 7 11 1024.9 1024.9 -
22/03:30am 4.7 - - - - WNW 6 9 3 5 1025.0 - -
22/03:00am 4.8 - - - - W 7 13 4 7 1025.1 1025.1 -
22/02:30am 4.9 - - - - W 11 17 6 9 1025.4 - -
22/02:00am 5.4 - - - - W 9 13 5 7 1025.5 1025.5 -
22/01:30am 5.5 - - - - WSW 11 17 6 9 1025.4 - -
22/01:00am 5.0 - - - - NW 4 7 2 4 1025.5 1025.5 -
22/12:30am 4.8 - - - - WNW 6 9 3 5 1025.5 - -
22/12:00am 5.1 - - - - NW 4 6 2 3 1025.6 1025.6 -
 
Date/Time
EST
Temp
°C
App
Temp
°C
Dew
Point
Rel
Hum
%
Delta-T
°C
Wind Press
QNH
hPa
Press
MSL
hPa
Rain
since 9 am
mm
Dir
 
Spd
km/h
Gust
km/h
Spd
kts
Gust
kts
21/11:30pm 5.1 - - - - NW 9 11 5 6 1025.7 - -
21/11:00pm 5.1 - - - - NW 7 11 4 6 1025.7 1025.7 -
21/10:30pm 5.3 - - - - WNW 6 7 3 4 1025.8 - -
21/10:00pm 5.5 - - - - NW 7 9 4 5 1025.8 1025.8 -
21/09:30pm 5.4 - - - - NW 7 11 4 6 1026.0 - -
21/09:00pm 5.8 - - - - NW 6 9 3 5 1025.9 1025.9 -
21/08:30pm 5.9 - - - - NW 6 7 3 4 1025.9 - -
21/08:00pm 6.3 - - - - NW 7 9 4 5 1025.8 1025.8 -
21/07:30pm 6.9 - - - - WNW 6 7 3 4 1025.9 - -
21/07:00pm 7.2 - - - - NW 9 11 5 6 1025.9 1025.9 -
21/06:30pm 7.6 - - - - NW 7 11 4 6 1025.9 - -
21/06:00pm 8.0 - - - - NW 7 9 4 5 1025.7 1025.7 -
21/05:30pm 8.8 - - - - NW 6 9 3 5 1025.4 - -
21/05:00pm 9.4 - - - - NNW 4 6 2 3 1025.2 1025.2 -
21/04:30pm 10.7 - - - - NNW 2 2 1 1 1025.0 - -
21/04:00pm 11.8 - - - - E 4 6 2 3 1024.9 1024.9 -
21/03:30pm 11.9 - - - - E 4 6 2 3 1024.8 - -
21/03:00pm 11.8 - - - - ESE 4 6 2 3 1024.7 1024.7 -
21/02:30pm 13.1 - - - - CALM 0 2 0 1 1024.6 - -
21/02:00pm 11.3 - - - - ENE 4 7 2 4 1024.8 1024.8 -
21/01:30pm 10.9 - - - - E 6 9 3 5 1025.0 - -
21/01:00pm 10.3 - - - - SE 6 7 3 4 1025.3 1025.3 -
21/12:30pm 10.6 - - - - S 4 6 2 3 1025.6 - -
21/12:00pm 11.7 - - - - SSW 4 7 2 4 1025.9 1025.9 -
21/11:30am 11.7 - - - - CALM 0 4 0 2 1026.3 - -
21/11:00am 10.5 - - - - SW 2 6 1 3 1026.7 1026.7 -
21/10:30am 7.8 - - - - CALM 0 2 0 1 1026.9 - -
21/10:00am 7.7 - - - - WNW 2 4 1 2 1027.0 1027.0 -
21/09:30am 7.7 - - - - W 6 9 3 5 1027.2 - -
21/09:00am 6.0 - - - - W 6 9 3 5 1027.3 1027.3 -
21/08:30am 5.0 - - - - WNW 4 7 2 4 1027.2 - -
21/08:00am 4.3 - - - - WNW 6 7 3 4 1027.0 1027.0 -
21/07:30am 4.1 - - - - NW 6 7 3 4 1026.9 - -
21/07:00am 3.9 - - - - W 4 6 2 3 1026.7 1026.7 -
21/06:30am 3.9 - - - - NW 6 7 3 4 1026.5 - -
21/06:00am 4.2 - - - - WNW 4 7 2 4 1026.3 1026.3 -
21/05:30am 4.3 - - - - NW 7 9 4 5 1026.2 - -
21/05:00am 4.5 - - - - WNW 4 6 2 3 1026.1 1026.1 -
21/04:30am 5.0 - - - - WNW 7 11 4 6 1026.1 - -
21/04:00am 5.2 - - - - WNW 6 9 3 5 1026.0 1026.0 -
21/03:30am 5.2 - - - - NW 7 11 4 6 1026.1 - -
21/03:00am 5.3 - - - - WNW 7 11 4 6 1026.4 1026.4 -
21/02:30am 5.3 - - - - W 6 7 3 4 1026.6 - -
21/02:00am 5.7 - - - - WNW 4 7 2 4 1026.6 1026.6 -
21/01:30am 5.5 - - - - NW 6 7 3 4 1026.4 - -
21/01:00am 5.8 - - - - WSW 6 13 3 7 1026.3 1026.3 -
21/12:30am 6.0 - - - - WNW 6 7 3 4 1026.4 - -
21/12:00am 6.0 - - - - WNW 6 7 3 4 1026.7 1026.7 -
 
Date/Time
EST
Temp
°C
App
Temp
°C
Dew
Point
Rel
Hum
%
Delta-T
°C
Wind Press
QNH
hPa
Press
MSL
hPa
Rain
since 9 am
mm
Dir
 
Spd
km/h
Gust
km/h
Spd
kts
Gust
kts
20/11:30pm 6.3 - - - - W 6 13 3 7 1026.9 - -
20/11:00pm 5.9 - - - - NW 4 7 2 4 1026.8 1026.8 -
20/10:30pm 5.9 - - - - NW 11 13 6 7 1026.6 - -
20/10:00pm 6.2 - - - - NW 11 13 6 7 1026.5 1026.5 -
20/09:30pm 6.3 - - - - NW 9 11 5 6 1026.5 - -
20/09:00pm 6.6 - - - - NNW 11 13 6 7 1026.4 1026.4 -
20/08:30pm 7.1 - - - - NW 11 15 6 8 1026.4 - -
20/08:00pm 7.3 - - - - NNW 11 15 6 8 1026.5 1026.5 -
20/07:30pm 7.7 - - - - NNW 11 15 6 8 1026.3 - -
20/07:00pm 7.9 - - - - NNW 11 13 6 7 1026.2 1026.2 -
20/06:30pm 8.5 - - - - NW 11 13 6 7 1025.9 - -
20/06:00pm 9.0 - - - - NNW 9 11 5 6 1025.7 1025.7 -
20/05:30pm 10.3 - - - - NNW 6 11 3 6 1025.5 - -
20/05:00pm 11.2 - - - - ESE 6 7 3 4 1025.4 1025.4 -
20/04:30pm 12.7 - - - - E 11 15 6 8 1025.4 - -
20/04:00pm 13.0 - - - - ESE 11 15 6 8 1025.1 1025.1 -
20/03:30pm 14.1 - - - - SW 4 9 2 5 1025.0 - -
20/03:00pm 13.9 - - - - W 4 7 2 4 1024.8 1024.8 -
20/02:30pm 13.3 - - - - W 4 9 2 5 1024.8 - -
20/02:00pm 14.4 - - - - W 6 9 3 5 1024.8 1024.8 -
20/01:30pm 13.4 - - - - WSW 9 13 5 7 1025.1 - -
20/01:00pm 12.7 - - - - SW 9 15 5 8 1025.4 1025.4 -
20/12:30pm 11.6 - - - - WSW 17 20 9 11 1025.8 - -
20/12:00pm 12.0 - - - - WSW 11 17 6 9 1026.3 1026.3 -
20/11:30am 11.0 - - - - WSW 15 19 8 10 1026.6 - -
20/11:00am 10.5 - - - - SW 13 17 7 9 1026.9 1026.9 -
20/10:30am 9.6 - - - - SW 15 22 8 12 1026.8 - -
20/10:00am 9.2 - - - - WSW 15 19 8 10 1026.8 1026.8 -
20/09:30am 7.9 - - - - SW 13 20 7 11 1026.6 - -
20/09:00am 7.5 - - - - SW 17 22 9 12 1026.4 1026.4 -
20/08:30am 6.1 - - - - SW 20 28 11 15 1026.4 - -
20/08:00am 5.9 - - - - SW 19 22 10 12 1026.2 1026.2 -
20/07:30am 5.9 - - - - WSW 19 24 10 13 1026.0 - -
20/07:00am 6.2 - - - - WSW 17 20 9 11 1025.8 1025.8 -
20/06:30am 5.6 - - - - SW 19 24 10 13 1025.4 - -
20/06:00am 6.1 - - - - WSW 19 22 10 12 1025.2 1025.2 -
20/05:30am 5.7 - - - - SW 19 22 10 12 1025.2 - -
20/05:00am 5.3 - - - - SW 22 26 12 14 1025.1 1025.1 -
20/04:30am 5.3 - - - - SW 17 20 9 11 1025.1 - -
20/04:00am 5.9 - - - - SW 19 22 10 12 1025.3 1025.3 -
20/03:30am 5.9 - - - - W 19 26 10 14 1025.3 - -

Other Formats:

Comma delimited format used in spreadsheet applications
http://www.bom.gov.au/fwo/IDT60801/IDT60801.95987.axf

JavaScript Object Notation format (JSON) in row-major order
http://www.bom.gov.au/fwo/IDT60801/IDT60801.95987.json